Time;durP1;ratioP1;P1;durP2;ratioP2;P2;SDS_P1;SDS_P2;PMS_P1;PMS_P2;Temp;Humidity;BMP_temperature;BMP_pressure;BME280_temperature;BME280_humidity;BME280_pressure;Samples;Min_cycle;Max_cycle;Signal;HPM_P1;HPM_P2
2023/04/01 00:00:25;;;;;;;1601.43;759.33;;;12.50;99.90;;;;;;4950733;29;20043;-84
2023/04/01 00:02:51;;;;;;;1999.90;999.90;;;13.10;99.90;;;;;;4946290;29;20481;-84
2023/04/01 00:05:17;;;;;;;1999.90;999.90;;;13.00;99.90;;;;;;4951134;29;20512;-85
2023/04/01 00:07:43;;;;;;;1999.90;999.90;;;12.80;99.90;;;;;;4931112;29;20511;-85
2023/04/01 00:10:11;;;;;;;1999.90;999.90;;;13.10;99.90;;;;;;4915932;29;20056;-84
2023/04/01 00:12:38;;;;;;;1999.90;999.90;;;12.50;99.90;;;;;;4915873;29;20059;-84
2023/04/01 00:15:06;;;;;;;1999.90;999.90;;;12.70;99.90;;;;;;4941597;29;20104;-84
2023/04/01 00:17:32;;;;;;;1999.90;999.90;;;12.50;99.90;;;;;;4948169;28;20114;-84
2023/04/01 00:19:58;;;;;;;1999.90;999.90;;;12.90;99.90;;;;;;4953227;28;20054;-85
2023/04/01 00:22:24;;;;;;;1999.90;999.90;;;13.10;99.90;;;;;;4954200;28;20051;-84
2023/04/01 00:24:50;;;;;;;1999.90;999.90;;;13.10;99.90;;;;;;4950668;28;20423;-84
2023/04/01 00:27:16;;;;;;;1999.90;999.90;;;12.50;99.90;;;;;;4950251;28;20054;-85
2023/04/01 00:29:43;;;;;;;1999.90;999.90;;;12.50;99.90;;;;;;4938076;29;20047;-85
2023/04/01 00:32:09;;;;;;;1190.38;522.45;;;12.60;99.90;;;;;;4945471;28;20055;-84
2023/04/01 00:34:35;;;;;;;1999.90;999.90;;;12.90;99.90;;;;;;4939684;29;20456;-84
2023/04/01 00:37:00;;;;;;;1281.20;525.00;;;12.50;99.90;;;;;;4950041;28;20038;-86
2023/04/01 00:39:32;;;;;;;1999.90;999.90;;;12.80;99.90;;;;;;4954312;29;20039;-84
2023/04/01 00:41:59;;;;;;;1999.90;999.90;;;13.10;99.90;;;;;;4953293;28;20373;-84
2023/04/01 00:44:31;;;;;;;1999.90;999.90;;;12.60;99.90;;;;;;4943000;28;20127;-85
2023/04/01 00:46:56;;;;;;;1568.10;756.85;;;13.10;99.90;;;;;;4953206;29;20379;-84
2023/04/01 00:49:26;;;;;;;743.45;270.00;;;12.70;99.90;;;;;;4944452;29;20044;-84
2023/04/01 00:51:55;;;;;;;1999.90;999.90;;;12.50;99.90;;;;;;4934998;29;20087;-84
2023/04/01 00:54:23;;;;;;;1180.32;519.47;;;13.00;99.90;;;;;;4932570;29;20389;-86
2023/04/01 00:56:56;;;;;;;1999.90;999.90;;;12.70;99.90;;;;;;4951996;29;20042;-84
2023/04/01 00:59:34;;;;;;;1199.50;517.17;;;12.50;99.90;;;;;;4952870;28;20472;-84
2023/04/01 01:02:01;;;;;;;1999.90;999.90;;;12.40;99.90;;;;;;4948114;28;20094;-84
2023/04/01 01:04:32;;;;;;;1999.90;999.90;;;13.10;99.90;;;;;;4941317;28;20051;-84
2023/04/01 01:07:06;;;;;;;1999.90;999.90;;;12.90;99.90;;;;;;4945128;29;20047;-84
2023/04/01 01:09:53;;;;;;;1999.90;999.90;;;13.00;99.90;;;;;;4953656;29;20036;-84
2023/04/01 01:12:26;;;;;;;1999.90;999.90;;;12.50;99.90;;;;;;4952932;29;20507;-84
2023/04/01 01:15:02;;;;;;;1999.90;999.90;;;13.10;99.90;;;;;;4927927;28;20097;-84
2023/04/01 01:17:44;;;;;;;1999.90;999.90;;;12.60;99.90;;;;;;4932835;29;20493;-85
2023/04/01 01:20:37;;;;;;;1999.90;999.90;;;12.70;99.90;;;;;;4950244;28;20099;-84
2023/04/01 01:23:30;;;;;;;1999.90;999.90;;;12.90;99.90;;;;;;4934019;29;20036;-84
2023/04/01 01:26:13;;;;;;;1999.90;999.90;;;13.00;99.90;;;;;;4942021;29;20049;-84
2023/04/01 01:29:09;;;;;;;1999.90;999.90;;;13.10;99.90;;;;;;4951864;29;20058;-86
2023/04/01 01:31:57;;;;;;;1999.90;999.90;;;12.50;99.90;;;;;;4938259;29;20058;-84
2023/04/01 01:34:28;;;;;;;1999.90;999.90;;;12.50;99.90;;;;;;4948981;28;20043;-84
2023/04/01 01:37:01;;;;;;;1999.90;999.90;;;12.80;99.90;;;;;;4949663;28;20055;-85
2023/04/01 01:39:31;;;;;;;1999.90;999.90;;;12.80;99.90;;;;;;4953411;28;20550;-85
2023/04/01 01:42:00;;;;;;;1999.90;999.90;;;12.60;99.90;;;;;;4914715;29;20056;-85
2023/04/01 01:44:28;;;;;;;1999.90;999.90;;;13.00;99.90;;;;;;4941126;29;20500;-84
2023/04/01 01:46:55;;;;;;;1999.90;999.90;;;12.90;99.90;;;;;;4941728;28;20103;-85
2023/04/01 01:49:22;;;;;;;1999.90;999.90;;;12.50;99.90;;;;;;4935407;28;20043;-85
2023/04/01 01:51:48;;;;;;;1999.90;999.90;;;12.40;99.90;;;;;;4918399;29;20055;-84
2023/04/01 01:54:15;;;;;;;1999.90;999.90;;;12.30;99.90;;;;;;4924678;29;20046;-84
2023/04/01 01:56:44;;;;;;;1999.90;999.90;;;12.70;99.90;;;;;;4943596;29;20043;-84
2023/04/01 01:59:14;;;;;;;1999.90;999.90;;;13.10;99.90;;;;;;4931442;29;20048;-85
2023/04/01 02:01:44;;;;;;;1999.90;999.90;;;12.80;99.90;;;;;;4941681;29;20054;-84
2023/04/01 02:04:13;;;;;;;1999.90;999.90;;;12.80;99.90;;;;;;4955230;29;20065;-84
2023/04/01 02:06:46;;;;;;;1999.90;999.90;;;12.60;99.90;;;;;;4949925;28;20129;-84
2023/04/01 02:09:12;;;;;;;1999.90;999.90;;;12.30;99.90;;;;;;4954720;28;20043;-83
2023/04/01 02:11:52;;;;;;;1999.90;999.90;;;12.40;99.90;;;;;;4955011;29;20058;-84
2023/04/01 02:14:25;;;;;;;1152.45;514.88;;;12.60;99.90;;;;;;4948209;28;20498;-86
2023/04/01 02:17:02;;;;;;;1213.22;522.33;;;12.40;99.90;;;;;;4949127;28;20488;-85
2023/04/01 02:19:34;;;;;;;1999.90;999.90;;;12.50;99.90;;;;;;4918501;29;20040;-84
2023/04/01 02:22:03;;;;;;;1999.90;999.90;;;12.90;99.90;;;;;;4945171;29;20047;-83
2023/04/01 02:24:33;;;;;;;1349.00;529.72;;;13.00;99.90;;;;;;4946769;28;20126;-83
2023/04/01 02:26:59;;;;;;;1999.90;999.90;;;12.40;99.90;;;;;;4942335;28;20485;-84
2023/04/01 02:29:25;;;;;;;1999.90;999.90;;;12.50;99.90;;;;;;4928768;29;20099;-83
2023/04/01 02:31:53;;;;;;;1999.90;999.90;;;13.10;99.90;;;;;;4930152;29;20453;-84
2023/04/01 02:34:21;;;;;;;1999.90;999.90;;;12.40;99.90;;;;;;4949280;28;20069;-84
2023/04/01 02:36:48;;;;;;;1999.90;999.90;;;12.90;99.90;;;;;;4949454;28;20123;-84
2023/04/01 02:39:14;;;;;;;1999.90;999.90;;;12.90;99.90;;;;;;4951820;29;20174;-87
2023/04/01 02:41:42;;;;;;;1999.90;999.90;;;13.40;99.90;;;;;;4956060;28;20126;-86
2023/04/01 02:44:09;;;;;;;1999.90;999.90;;;12.80;99.90;;;;;;4956471;28;20061;-84
2023/04/01 02:46:37;;;;;;;1999.90;999.90;;;13.00;99.90;;;;;;4947871;28;20135;-84
2023/04/01 02:49:03;;;;;;;1999.90;999.90;;;13.00;99.90;;;;;;4939656;28;20043;-84
2023/04/01 02:51:29;;;;;;;1999.90;999.90;;;13.00;99.90;;;;;;4952030;28;20050;-85
2023/04/01 02:53:54;;;;;;;1999.90;999.90;;;12.60;99.90;;;;;;4942035;29;20126;-86
2023/04/01 02:56:21;;;;;;;1999.90;999.90;;;12.40;99.90;;;;;;4917990;29;20384;-84
2023/04/01 02:58:47;;;;;;;1999.90;999.90;;;12.60;99.90;;;;;;4936644;29;20445;-84
2023/04/01 03:01:13;;;;;;;1999.90;999.90;;;12.40;99.90;;;;;;4953770;28;20047;-84
2023/04/01 03:03:39;;;;;;;1999.90;999.90;;;12.90;99.90;;;;;;4951706;28;20484;-83
2023/04/01 03:06:09;;;;;;;1999.90;999.90;;;12.50;99.90;;;;;;4944316;29;20046;-84
2023/04/01 03:08:35;;;;;;;1999.90;999.90;;;12.90;99.90;;;;;;4948780;28;20035;-85
2023/04/01 03:11:01;;;;;;;1562.18;755.10;;;12.40;99.90;;;;;;4955043;29;20881;-83
2023/04/01 03:13:27;;;;;;;1999.90;999.90;;;12.30;99.90;;;;;;4949642;29;20122;-84
2023/04/01 03:15:53;;;;;;;1999.90;999.90;;;12.90;99.90;;;;;;4954510;28;20046;-83
2023/04/01 03:18:19;;;;;;;1999.90;999.90;;;12.40;99.90;;;;;;4950432;28;20048;-84
2023/04/01 03:20:45;;;;;;;1999.90;999.90;;;13.20;99.90;;;;;;4955281;28;20085;-83
2023/04/01 03:23:11;;;;;;;1999.90;999.90;;;12.30;99.90;;;;;;4938157;29;20054;-83
2023/04/01 03:25:36;;;;;;;1999.90;999.90;;;12.30;99.90;;;;;;4955549;29;20043;-83
2023/04/01 03:28:03;;;;;;;1999.90;999.90;;;12.90;99.90;;;;;;4947386;29;20035;-83
2023/04/01 03:30:31;;;;;;;1999.90;999.90;;;12.60;99.90;;;;;;4939610;28;20082;-83
2023/04/01 03:32:59;;;;;;;1999.90;999.90;;;12.50;99.90;;;;;;4936685;29;20051;-83
2023/04/01 03:35:25;;;;;;;1999.90;999.90;;;12.80;99.90;;;;;;4948835;29;20043;-83
2023/04/01 03:37:51;;;;;;;1999.90;999.90;;;11.70;99.90;;;;;;4951266;28;20386;-84
2023/04/01 03:40:17;;;;;;;1999.90;999.90;;;12.20;99.90;;;;;;4945890;28;20483;-83
2023/04/01 03:42:43;;;;;;;1999.90;999.90;;;12.20;99.90;;;;;;4955293;29;20046;-84
2023/04/01 03:45:09;;;;;;;1999.90;999.90;;;12.30;99.90;;;;;;4942078;29;20045;-83
2023/04/01 03:47:35;;;;;;;1213.93;524.00;;;12.20;99.90;;;;;;4943336;28;20087;-83
2023/04/01 03:50:01;;;;;;;1999.90;999.90;;;12.30;99.90;;;;;;4930021;29;20043;-84
2023/04/01 03:52:27;;;;;;;1999.90;999.90;;;12.70;99.90;;;;;;4955047;28;20043;-84
2023/04/01 03:54:52;;;;;;;1999.90;999.90;;;12.70;99.90;;;;;;4948244;29;20054;-84
2023/04/01 03:57:18;;;;;;;1999.90;999.90;;;12.30;99.90;;;;;;4936818;29;20051;-83
2023/04/01 03:59:44;;;;;;;1999.90;999.90;;;12.90;99.90;;;;;;4938541;29;20091;-83
2023/04/01 04:02:09;;;;;;;1999.90;999.90;;;12.80;99.90;;;;;;4949300;29;20102;-82
2023/04/01 04:04:35;;;;;;;1999.90;999.90;;;12.40;99.90;;;;;;4950948;28;20357;-85
2023/04/01 04:07:01;;;;;;;1241.10;522.25;;;12.50;99.90;;;;;;4954613;29;20053;-83
2023/04/01 04:09:27;;;;;;;1999.90;999.90;;;12.60;99.90;;;;;;4954846;29;20087;-82
2023/04/01 04:11:52;;;;;;;1999.90;999.90;;;13.40;99.90;;;;;;4945273;28;20457;-83
2023/04/01 04:14:18;;;;;;;1999.90;999.90;;;12.60;99.90;;;;;;4940426;29;20061;-85
2023/04/01 04:16:44;;;;;;;1999.90;999.90;;;12.80;99.90;;;;;;4950317;29;20050;-83
2023/04/01 04:19:10;;;;;;;1999.90;999.90;;;12.90;99.90;;;;;;4953153;29;20097;-83
2023/04/01 04:21:35;;;;;;;1999.90;999.90;;;12.80;99.90;;;;;;4951081;29;20432;-85
2023/04/01 04:24:02;;;;;;;1999.90;999.90;;;12.60;99.90;;;;;;4937162;29;20456;-84
2023/04/01 04:26:28;;;;;;;1999.90;999.90;;;12.40;99.90;;;;;;4950284;29;20043;-83
2023/04/01 04:28:55;;;;;;;743.75;268.92;;;12.40;99.90;;;;;;4954262;28;20469;-84
2023/04/01 04:31:22;;;;;;;1999.90;999.90;;;12.90;99.90;;;;;;4940445;28;20043;-83
2023/04/01 04:33:49;;;;;;;1999.90;999.90;;;12.60;99.90;;;;;;4954881;28;20043;-83
2023/04/01 04:36:15;;;;;;;1999.90;999.90;;;12.40;99.90;;;;;;4950057;29;20051;-83
2023/04/01 04:38:40;;;;;;;1999.90;999.90;;;12.40;99.90;;;;;;4943783;29;20395;-83
2023/04/01 04:41:17;;;;;;;1999.90;999.90;;;12.40;99.90;;;;;;4947427;29;20052;-83
2023/04/01 04:43:52;;;;;;;1999.90;999.90;;;12.70;99.90;;;;;;4932065;29;20106;-84
2023/04/01 04:46:19;;;;;;;1999.90;999.90;;;12.90;99.90;;;;;;4942394;29;20051;-84
2023/04/01 04:48:45;;;;;;;1999.90;999.90;;;12.70;99.90;;;;;;4934358;29;20086;-83
2023/04/01 04:51:15;;;;;;;1999.90;999.90;;;12.20;99.90;;;;;;4933293;29;20126;-83
2023/04/01 04:53:41;;;;;;;1299.90;523.42;;;12.50;99.90;;;;;;4944346;29;20047;-83
2023/04/01 04:56:07;;;;;;;1999.90;999.90;;;12.80;99.90;;;;;;4952973;29;20050;-84
2023/04/01 04:58:33;;;;;;;1999.90;999.90;;;12.60;99.90;;;;;;4953582;29;20031;-84
2023/04/01 05:00:59;;;;;;;1999.90;999.90;;;12.70;99.90;;;;;;4953306;28;20141;-84
2023/04/01 05:03:25;;;;;;;1312.03;524.78;;;12.90;99.90;;;;;;4935898;28;20076;-84
2023/04/01 05:05:53;;;;;;;1218.18;523.28;;;13.00;99.90;;;;;;4930951;29;20063;-83
2023/04/01 05:08:18;;;;;;;1999.90;999.90;;;12.90;99.90;;;;;;4931196;29;20126;-84
2023/04/01 05:10:44;;;;;;;1999.90;999.90;;;12.50;99.90;;;;;;4934228;29;20178;-84
2023/04/01 05:13:10;;;;;;;1999.90;999.90;;;12.70;99.90;;;;;;4941894;29;20073;-84
2023/04/01 05:15:37;;;;;;;1999.90;999.90;;;12.50;99.90;;;;;;4952978;29;20035;-83
2023/04/01 05:18:03;;;;;;;1223.43;522.35;;;12.60;99.90;;;;;;4947882;28;20044;-84
2023/04/01 05:20:29;;;;;;;1999.90;999.90;;;12.90;99.90;;;;;;4953184;28;20488;-83
2023/04/01 05:22:59;;;;;;;1999.90;999.90;;;13.10;99.90;;;;;;4934267;29;20035;-85
2023/04/01 05:25:25;;;;;;;1999.90;999.90;;;12.90;99.90;;;;;;4941698;29;20051;-83
2023/04/01 05:27:51;;;;;;;1999.90;999.90;;;13.00;99.90;;;;;;4927804;29;20095;-83
2023/04/01 05:30:16;;;;;;;1999.90;999.90;;;12.60;99.90;;;;;;4938570;28;20043;-83
2023/04/01 05:32:43;;;;;;;1999.90;999.90;;;13.00;99.90;;;;;;4934554;29;20111;-83
2023/04/01 05:35:09;;;;;;;1999.90;999.90;;;12.90;99.90;;;;;;4928589;29;20052;-86
2023/04/01 05:37:35;;;;;;;1999.90;999.90;;;12.70;99.90;;;;;;4953396;28;20409;-82
2023/04/01 05:40:02;;;;;;;1999.90;999.90;;;13.10;99.90;;;;;;4936104;29;20044;-82
2023/04/01 05:42:28;;;;;;;1999.90;999.90;;;12.60;99.90;;;;;;4936884;29;20458;-82
2023/04/01 05:44:55;;;;;;;1202.95;516.30;;;13.10;99.90;;;;;;4932131;29;20047;-83
2023/04/01 05:47:21;;;;;;;1999.90;999.90;;;12.60;99.90;;;;;;4933724;29;20082;-84
2023/04/01 05:49:47;;;;;;;1999.90;999.90;;;13.10;99.90;;;;;;4932354;29;20087;-84
2023/04/01 05:52:13;;;;;;;1202.50;521.05;;;12.90;99.90;;;;;;4925832;29;20052;-82
2023/04/01 05:54:38;;;;;;;1999.90;999.90;;;13.00;99.90;;;;;;4927544;29;20522;-82
2023/04/01 05:57:04;;;;;;;1213.75;519.45;;;;;;;;;;4935185;29;20039;-91
2023/04/01 05:59:34;;;;;;;1999.90;999.90;;;13.10;99.90;;;;;;4932779;29;20050;-83
2023/04/01 06:02:01;;;;;;;1999.90;999.90;;;13.00;99.90;;;;;;4924806;29;20047;-82
2023/04/01 06:04:31;;;;;;;1999.90;999.90;;;13.10;99.90;;;;;;4935882;29;20064;-83
2023/04/01 06:06:57;;;;;;;1275.60;522.08;;;12.60;99.90;;;;;;4933958;29;20837;-83
2023/04/01 06:09:30;;;;;;;1999.90;999.90;;;13.10;99.90;;;;;;4942721;29;20445;-83
2023/04/01 06:12:08;;;;;;;1999.90;999.90;;;12.60;99.90;;;;;;4932024;29;20064;-85
2023/04/01 06:14:59;;;;;;;1999.90;999.90;;;12.80;99.90;;;;;;4944171;29;20062;-83
2023/04/01 06:17:46;;;;;;;1999.90;999.90;;;12.60;99.90;;;;;;4931799;29;20464;-83
2023/04/01 06:20:27;;;;;;;1999.90;999.90;;;13.10;99.90;;;;;;4926700;29;20050;-84
2023/04/01 06:23:22;;;;;;;1999.90;999.90;;;13.10;99.90;;;;;;4930024;29;20486;-84
2023/04/01 06:26:16;;;;;;;1999.90;999.90;;;13.10;99.90;;;;;;4929720;29;20060;-83
2023/04/01 06:28:47;;;;;;;1999.90;999.90;;;12.60;99.90;;;;;;4938883;29;20405;-83
2023/04/01 06:31:55;;;;;;;1999.90;999.90;;;13.10;99.90;;;;;;4930778;29;20048;-82
2023/04/01 06:34:36;;;;;;;1999.90;999.90;;;12.60;99.90;;;;;;4929055;29;20063;-82
2023/04/01 06:37:04;;;;;;;1999.90;999.90;;;12.60;99.90;;;;;;4935709;28;20472;-83
2023/04/01 06:39:54;;;;;;;1999.90;999.90;;;13.30;99.90;;;;;;4950857;29;20214;-82
2023/04/01 06:42:33;;;;;;;;;;;12.90;99.90;;;;;;4943910;29;20044;-82
2023/04/01 06:45:30;;;;;;;1220.38;520.58;;;13.00;99.90;;;;;;4940595;28;20395;-83
2023/04/01 06:48:18;;;;;;;1318.43;527.95;;;12.80;99.90;;;;;;4939442;29;20378;-83
2023/04/01 06:50:45;;;;;;;1999.90;999.90;;;13.10;99.90;;;;;;4936469;29;20055;-83
2023/04/01 06:53:25;;;;;;;1999.90;999.90;;;13.10;99.90;;;;;;4952412;28;20062;-83
2023/04/01 06:56:07;;;;;;;1999.90;999.90;;;13.10;99.90;;;;;;4931717;28;20044;-83
2023/04/01 06:59:02;;;;;;;1999.90;999.90;;;12.80;99.90;;;;;;4934050;29;20043;-83
2023/04/01 07:01:53;;;;;;;1659.88;765.10;;;12.70;99.90;;;;;;4940450;29;20109;-83
2023/04/01 07:04:38;;;;;;;940.80;291.83;;;12.60;99.90;;;;;;4933217;28;20054;-83
2023/04/01 07:07:19;;;;;;;1999.90;999.90;;;13.00;99.90;;;;;;4926641;29;20493;-83
2023/04/01 07:09:55;;;;;;;1370.53;532.00;;;12.70;99.90;;;;;;4934365;29;20052;-83
2023/04/01 07:12:35;;;;;;;1999.90;999.90;;;12.70;99.90;;;;;;4947194;29;20501;-83
2023/04/01 07:15:16;;;;;;;1999.90;999.90;;;13.10;99.90;;;;;;4921734;29;20052;-82
2023/04/01 07:17:44;;;;;;;1999.90;999.90;;;12.80;99.90;;;;;;4937927;29;20043;-83
2023/04/01 07:20:22;;;;;;;1999.90;999.90;;;13.30;99.90;;;;;;4946447;28;20500;-84
2023/04/01 07:22:56;;;;;;;1999.90;999.90;;;12.90;99.90;;;;;;4939662;29;20055;-82
2023/04/01 07:25:30;;;;;;;1999.90;999.90;;;14.40;99.90;;;;;;4937837;28;20051;-82
2023/04/01 07:28:03;;;;;;;1599.07;760.28;;;13.10;99.90;;;;;;4944952;29;20503;-82
2023/04/01 07:30:42;;;;;;;1999.90;999.90;;;13.80;99.90;;;;;;4929198;29;20055;-85
2023/04/01 07:33:26;;;;;;;1999.90;999.90;;;13.20;99.90;;;;;;4948278;29;20778;-82
2023/04/01 07:36:08;;;;;;;1999.90;999.90;;;13.60;99.90;;;;;;4923235;29;20057;-82
2023/04/01 07:38:49;;;;;;;1999.90;999.90;;;13.30;99.90;;;;;;4939410;29;20039;-83
2023/04/01 07:41:27;;;;;;;1999.90;999.90;;;13.60;99.90;;;;;;4934078;29;20123;-83
2023/04/01 07:44:00;;;;;;;1999.90;999.90;;;13.90;99.90;;;;;;4931830;29;20048;-82
2023/04/01 07:46:51;;;;;;;1156.05;510.92;;;13.70;99.90;;;;;;4942887;28;20396;-82
2023/04/01 07:49:55;;;;;;;1999.90;999.90;;;14.40;99.90;;;;;;4929818;28;20461;-82
2023/04/01 07:52:39;;;;;;;1999.90;999.90;;;14.00;99.90;;;;;;4938209;29;20046;-83
2023/04/01 07:55:05;;;;;;;1999.90;999.90;;;14.10;99.90;;;;;;4915667;29;20044;-83
2023/04/01 07:57:38;;;;;;;1999.90;999.90;;;14.50;99.90;;;;;;4926995;28;20047;-81
2023/04/01 08:00:10;;;;;;;1999.90;999.90;;;14.60;99.90;;;;;;4945296;29;20476;-83
2023/04/01 08:03:02;;;;;;;1999.90;999.90;;;14.60;99.90;;;;;;4949643;29;20054;-82
2023/04/01 08:05:39;;;;;;;1564.07;752.83;;;14.50;99.90;;;;;;4932265;29;20142;-88
2023/04/01 08:08:25;;;;;;;1999.90;999.90;;;14.80;99.90;;;;;;4933444;29;20039;-83
2023/04/01 08:11:22;;;;;;;1999.90;999.90;;;14.90;99.90;;;;;;4931503;29;20040;-86
2023/04/01 08:14:03;;;;;;;1999.90;999.90;;;15.20;99.90;;;;;;4937961;29;20400;-83
2023/04/01 08:16:49;;;;;;;1999.90;999.90;;;15.60;99.90;;;;;;4935656;29;20051;-84
2023/04/01 08:19:21;;;;;;;1999.90;999.90;;;15.50;99.90;;;;;;4953443;28;20051;-88
2023/04/01 08:21:56;;;;;;;1999.90;999.90;;;15.60;99.90;;;;;;4947494;29;20127;-82
2023/04/01 08:24:44;;;;;;;1999.90;999.90;;;15.30;99.90;;;;;;4937677;28;20090;-84
2023/04/01 08:27:46;;;;;;;1999.90;999.90;;;15.40;99.90;;;;;;4940300;29;20054;-83
2023/04/01 08:30:20;;;;;;;1999.90;999.90;;;15.20;99.90;;;;;;4913586;28;20074;-83
2023/04/01 08:32:56;;;;;;;1999.90;999.90;;;15.50;99.90;;;;;;4942550;29;20043;-83
2023/04/01 08:35:37;;;;;;;1999.90;999.90;;;15.20;99.90;;;;;;4934347;29;20506;-84
2023/04/01 08:38:27;;;;;;;1999.90;999.90;;;15.40;99.90;;;;;;4950101;28;20054;-83
2023/04/01 08:41:06;;;;;;;1999.90;999.90;;;15.40;99.90;;;;;;4943686;29;20050;-83
2023/04/01 08:43:51;;;;;;;1999.90;999.90;;;15.10;99.90;;;;;;4935823;29;20090;-83
2023/04/01 08:46:29;;;;;;;1999.90;999.90;;;15.10;99.90;;;;;;4948013;29;20126;-84
2023/04/01 08:49:10;;;;;;;1999.90;999.90;;;15.00;99.90;;;;;;4946809;29;20047;-83
2023/04/01 08:52:13;;;;;;;1999.90;999.90;;;14.90;99.90;;;;;;4939924;28;20063;-84
2023/04/01 08:55:04;;;;;;;1999.90;999.90;;;14.50;99.90;;;;;;4943281;29;20413;-84
2023/04/01 08:57:55;;;;;;;1999.90;999.90;;;14.50;99.90;;;;;;4950484;29;20113;-83
2023/04/01 09:00:37;;;;;;;1999.90;999.90;;;14.80;99.90;;;;;;4952291;28;20047;-83
2023/04/01 09:03:34;;;;;;;1999.90;999.90;;;14.80;99.90;;;;;;4944374;29;20130;-83
2023/04/01 09:06:24;;;;;;;1999.90;999.90;;;14.80;99.90;;;;;;4923655;29;20052;-83
2023/04/01 09:09:20;;;;;;;1999.90;999.90;;;14.30;99.90;;;;;;4955239;29;20047;-83
2023/04/01 09:12:04;;;;;;;1999.90;999.90;;;14.20;99.90;;;;;;4926040;29;20083;-82
2023/04/01 09:15:04;;;;;;;1999.90;999.90;;;14.50;99.90;;;;;;4936796;29;20052;-88
2023/04/01 09:17:45;;;;;;;1999.90;999.90;;;14.10;99.90;;;;;;4867572;29;20084;-82
2023/04/01 09:20:42;;;;;;;1999.90;999.90;;;14.40;99.90;;;;;;4926008;29;20055;-82
2023/04/01 09:23:33;;;;;;;1999.90;999.90;;;14.20;99.90;;;;;;4942973;29;20380;-82
2023/04/01 09:26:02;;;;;;;1999.90;999.90;;;14.30;99.90;;;;;;4936761;29;20047;-81
2023/04/01 09:28:41;;;;;;;1999.90;999.90;;;14.40;99.90;;;;;;4923794;29;20055;-93
2023/04/01 09:31:31;;;;;;;1999.90;999.90;;;14.70;99.90;;;;;;4941329;29;20039;-85
2023/04/01 09:34:35;;;;;;;1999.90;999.90;;;15.00;99.90;;;;;;4919698;29;20172;-82
2023/04/01 09:37:28;;;;;;;1999.90;999.90;;;14.80;99.90;;;;;;4928842;29;20129;-83
2023/04/01 09:40:08;;;;;;;1999.90;999.90;;;14.80;99.90;;;;;;4927157;29;20054;-83
2023/04/01 09:42:52;;;;;;;1999.90;999.90;;;14.70;99.90;;;;;;4948861;29;20049;-82
2023/04/01 09:45:31;;;;;;;1999.90;999.90;;;15.00;99.90;;;;;;4932225;29;20126;-80
2023/04/01 09:48:31;;;;;;;1999.90;999.90;;;14.70;99.90;;;;;;4934764;29;20047;-80
2023/04/01 09:51:18;;;;;;;1999.90;999.90;;;15.10;99.90;;;;;;4925183;29;20074;-80
2023/04/01 09:54:03;;;;;;;1999.90;999.90;;;14.70;99.90;;;;;;4955360;29;20492;-80
2023/04/01 09:56:50;;;;;;;1999.90;999.90;;;14.80;99.90;;;;;;4918880;29;20052;-80
2023/04/01 09:59:44;;;;;;;1999.90;999.90;;;14.80;99.90;;;;;;4925233;29;20127;-86
2023/04/01 10:02:40;;;;;;;1999.90;999.90;;;14.90;99.90;;;;;;4939416;29;20048;-82
2023/04/01 10:05:26;;;;;;;1999.90;999.90;;;15.20;99.90;;;;;;4935013;29;20043;-82
2023/04/01 10:08:10;;;;;;;1999.90;999.90;;;15.10;99.90;;;;;;4934941;29;20055;-82
2023/04/01 10:10:45;;;;;;;1999.90;999.90;;;15.30;99.90;;;;;;4925637;29;20072;-90
2023/04/01 10:13:24;;;;;;;1999.90;999.90;;;14.90;99.90;;;;;;4949195;29;20134;-82
2023/04/01 10:16:17;;;;;;;1999.90;999.90;;;15.00;99.90;;;;;;4951643;29;20130;-82
2023/04/01 10:19:15;;;;;;;1999.90;999.90;;;14.60;99.90;;;;;;4955540;29;20051;-83
2023/04/01 10:21:44;;;;;;;1999.90;999.90;;;14.80;99.90;;;;;;4926271;29;20435;-82
2023/04/01 10:24:45;;;;;;;1999.90;999.90;;;14.30;99.90;;;;;;4956841;28;20082;-82
2023/04/01 10:27:22;;;;;;;1999.90;999.90;;;14.20;99.90;;;;;;4952709;28;20051;-83
2023/04/01 10:29:47;;;;;;;1999.90;999.90;;;14.60;99.90;;;;;;4953885;28;20122;-82
2023/04/01 10:32:22;;;;;;;1999.90;999.90;;;14.50;99.90;;;;;;4954664;29;20126;-82
2023/04/01 10:35:22;;;;;;;1999.90;999.90;;;14.20;99.90;;;;;;4956174;28;20051;-83
2023/04/01 10:38:05;;;;;;;1999.90;999.90;;;14.30;99.90;;;;;;4939698;29;20052;-79
2023/04/01 10:40:57;;;;;;;1999.90;999.90;;;13.90;99.90;;;;;;4937205;29;20059;-86
2023/04/01 10:43:54;;;;;;;1999.90;999.90;;;13.80;99.90;;;;;;4937343;29;20050;-79
2023/04/01 10:46:29;;;;;;;1999.90;999.90;;;14.20;99.90;;;;;;4942719;28;20071;-80
2023/04/01 10:49:30;;;;;;;1999.90;999.90;;;13.70;99.90;;;;;;4934385;29;20106;-80
2023/04/01 10:52:40;;;;;;;1999.90;999.90;;;14.10;99.90;;;;;;4887186;28;20525;-83
2023/04/01 10:55:08;;;;;;;1999.90;999.90;;;13.90;99.90;;;;;;4919739;29;20480;-79
2023/04/01 10:57:59;;;;;;;1999.90;999.90;;;14.10;99.90;;;;;;4946045;29;20051;-79
2023/04/01 11:00:49;;;;;;;1999.90;999.90;;;13.80;99.90;;;;;;4949941;29;20054;-80
2023/04/01 11:03:59;;;;;;;1999.90;999.90;;;13.70;99.90;;;;;;4938477;29;20083;-79
2023/04/01 11:06:55;;;;;;;1999.90;999.90;;;13.70;99.90;;;;;;4842252;29;20053;-78
2023/04/01 11:09:53;;;;;;;1999.90;999.90;;;14.10;99.90;;;;;;4928598;29;20444;-80
2023/04/01 11:12:18;;;;;;;1999.90;999.90;;;13.90;99.90;;;;;;4914770;29;20061;-86
2023/04/01 11:15:06;;;;;;;1999.90;999.90;;;14.10;99.90;;;;;;4950682;29;20063;-81
2023/04/01 11:18:01;;;;;;;1999.90;999.90;;;14.00;99.90;;;;;;4945817;29;20510;-80
2023/04/01 11:21:00;;;;;;;1999.90;999.90;;;14.10;99.90;;;;;;4909543;29;20062;-79
2023/04/01 11:23:38;;;;;;;1999.90;999.90;;;14.00;99.90;;;;;;4948731;29;20050;-79
2023/04/01 11:26:15;;;;;;;1999.90;999.90;;;13.60;99.90;;;;;;4934002;29;20059;-80
2023/04/01 11:29:10;;;;;;;1999.90;999.90;;;14.00;99.90;;;;;;4937463;29;20456;-80
2023/04/01 11:31:54;;;;;;;1999.90;999.90;;;13.70;99.90;;;;;;4941314;29;20480;-80
2023/04/01 11:34:22;;;;;;;1999.90;999.90;;;13.60;99.90;;;;;;4955540;29;20053;-80
2023/04/01 11:37:17;;;;;;;1999.90;999.90;;;14.00;99.90;;;;;;4949378;29;20047;-81
2023/04/01 11:40:23;;;;;;;1999.90;999.90;;;14.10;99.90;;;;;;4936982;29;20051;-79
2023/04/01 11:42:58;;;;;;;1999.90;999.90;;;14.10;99.90;;;;;;4945496;29;20070;-81
2023/04/01 11:45:39;;;;;;;1999.90;999.90;;;13.80;99.90;;;;;;4945498;28;20106;-81
2023/04/01 11:48:23;;;;;;;1999.90;999.90;;;14.10;99.90;;;;;;4932811;29;20047;-80
2023/04/01 11:51:08;;;;;;;1999.90;999.90;;;14.00;99.90;;;;;;4933360;29;20056;-81
2023/04/01 11:54:01;;;;;;;1999.90;999.90;;;13.50;99.90;;;;;;4945565;29;20050;-83
2023/04/01 11:57:04;;;;;;;1999.90;999.90;;;14.50;99.90;;;;;;4948246;29;20795;-82
2023/04/01 12:00:02;;;;;;;1999.90;999.90;;;13.40;99.90;;;;;;4926515;29;20050;-80
2023/04/01 12:02:52;;;;;;;1999.90;999.90;;;13.70;99.90;;;;;;4940561;28;20394;-80
2023/04/01 12:05:26;;;;;;;1999.90;999.90;;;13.80;99.90;;;;;;4913832;29;20048;-80
2023/04/01 12:08:08;;;;;;;1999.90;999.90;;;13.50;99.90;;;;;;4930100;29;20153;-84
2023/04/01 12:10:50;;;;;;;1999.90;999.90;;;13.60;99.90;;;;;;4943069;29;20048;-81
2023/04/01 12:13:34;;;;;;;1999.90;999.90;;;13.90;99.90;;;;;;4943649;29;20097;-81
2023/04/01 12:16:09;;;;;;;1999.90;999.90;;;14.10;99.90;;;;;;4945618;29;20047;-80
2023/04/01 12:19:12;;;;;;;1999.90;999.90;;;13.50;99.90;;;;;;4949425;28;20078;-85
2023/04/01 12:22:05;;;;;;;1999.90;999.90;;;13.60;99.90;;;;;;4922822;29;20122;-80
2023/04/01 12:24:55;;;;;;;1999.90;999.90;;;13.90;99.90;;;;;;4917099;29;20055;-80
2023/04/01 12:27:54;;;;;;;1999.90;999.90;;;13.60;99.90;;;;;;4926066;29;20104;-80
2023/04/01 12:30:43;;;;;;;1999.90;999.90;;;14.00;99.90;;;;;;4938163;29;20110;-79
2023/04/01 12:33:42;;;;;;;1999.90;999.90;;;14.10;99.90;;;;;;4931810;28;20420;-79
2023/04/01 12:36:51;;;;;;;1999.90;999.90;;;13.60;99.90;;;;;;4934298;29;20044;-81
2023/04/01 12:39:20;;;;;;;1999.90;999.90;;;14.10;99.90;;;;;;4931869;29;20051;-86
2023/04/01 12:42:02;;;;;;;1999.90;999.90;;;13.80;99.90;;;;;;4928397;29;20056;-82
2023/04/01 12:44:35;;;;;;;1999.90;999.90;;;13.50;99.90;;;;;;4935596;29;20556;-81
2023/04/01 12:47:13;;;;;;;1999.90;999.90;;;13.50;99.90;;;;;;4919550;29;20498;-82